createdAt,value
2017-06-15T00:00:50.834Z,1009.44
2017-06-15T00:10:50.793Z,1009.29
2017-06-15T00:20:50.746Z,1009.25
2017-06-15T00:30:50.812Z,1009.22
2017-06-15T00:40:50.764Z,1009.15
2017-06-15T00:50:50.733Z,1009.07
2017-06-15T01:00:50.806Z,1009.01
2017-06-15T01:10:50.757Z,1008.98
2017-06-15T01:20:50.829Z,1008.95
2017-06-15T01:30:50.780Z,1008.79
2017-06-15T01:40:50.744Z,1008.66
2017-06-15T01:50:50.808Z,1008.6
2017-06-15T02:00:50.770Z,1008.57
2017-06-15T02:10:50.732Z,1008.44
2017-06-15T02:20:50.792Z,1008.4
2017-06-15T02:30:50.750Z,1008.38
2017-06-15T02:40:50.825Z,1008.3
2017-06-15T02:50:50.783Z,1008.28
2017-06-15T03:00:50.750Z,1008.3
2017-06-15T03:10:50.802Z,1008.27
2017-06-15T03:20:50.719Z,1008.26
2017-06-15T03:30:50.709Z,1008.22
2017-06-15T03:40:50.706Z,1008.23
2017-06-15T03:50:50.709Z,1008.3
2017-06-15T04:00:50.703Z,1008.27
2017-06-15T04:10:50.697Z,1008.25
2017-06-15T04:20:50.703Z,1008.2
2017-06-15T04:30:50.702Z,1008.14
2017-06-15T04:40:50.719Z,1008.12
2017-06-15T04:50:50.704Z,1008.1
2017-06-15T05:00:50.702Z,1008.23
2017-06-15T05:10:50.700Z,1008.15
2017-06-15T05:20:50.706Z,1008.12
2017-06-15T05:30:50.754Z,1008.04
2017-06-15T05:40:50.710Z,1008.01
2017-06-15T05:50:50.705Z,1007.99
2017-06-15T06:00:50.713Z,1008.72
2017-06-15T06:10:50.713Z,1008.17
2017-06-15T06:20:50.722Z,1007.86
2017-06-15T06:30:50.729Z,1007.78
2017-06-15T06:40:50.750Z,1007.87
2017-06-15T06:50:50.729Z,1007.66
2017-06-15T07:00:50.739Z,1007.68
2017-06-15T07:10:50.750Z,1007.58
2017-06-15T07:20:50.739Z,1007.45
2017-06-15T07:30:50.747Z,1007.45
2017-06-15T07:40:50.767Z,1007.32
2017-06-15T07:50:50.764Z,1007.45
2017-06-15T08:00:50.761Z,1007.43
2017-06-15T08:10:50.773Z,1007.41
2017-06-15T08:20:50.757Z,1007.33
2017-06-15T08:30:50.782Z,1007.41
2017-06-15T08:40:50.766Z,1007.31
2017-06-15T08:50:50.786Z,1007.19
2017-06-15T09:00:50.789Z,1007.18
2017-06-15T09:10:50.811Z,1007.17
2017-06-15T09:20:50.808Z,1007.1
2017-06-15T09:30:50.811Z,1007
2017-06-15T09:40:50.819Z,1006.88
2017-06-15T09:50:50.798Z,1006.91
2017-06-15T10:00:50.801Z,1006.81
2017-06-15T10:10:50.812Z,1006.73
2017-06-15T10:20:50.792Z,1006.61
2017-06-15T10:30:50.809Z,1006.51
2017-06-15T10:40:50.816Z,1006.46
2017-06-15T10:50:50.822Z,1006.39
2017-06-15T11:00:50.819Z,1006.36
2017-06-15T11:10:50.823Z,1006.23
2017-06-15T11:20:50.819Z,1006.14
2017-06-15T11:30:50.830Z,1006.04
2017-06-15T11:40:50.883Z,1005.94
2017-06-15T11:50:50.836Z,1005.8
2017-06-15T12:00:50.894Z,1005.72
2017-06-15T12:10:50.855Z,1005.53
2017-06-15T12:20:50.832Z,1005.52
2017-06-15T12:30:50.874Z,1005.37
2017-06-15T12:40:50.836Z,1005.31
2017-06-15T12:50:50.854Z,1005.16
2017-06-15T13:00:50.859Z,1005.13
2017-06-15T13:10:50.915Z,1004.93
2017-06-15T13:20:50.882Z,1004.89
2017-06-15T13:30:50.861Z,1004.82
2017-06-15T13:40:50.864Z,1004.72
2017-06-15T13:50:50.864Z,1004.54
2017-06-15T14:00:50.883Z,1004.4
2017-06-15T14:10:50.899Z,1004.4
2017-06-15T14:20:50.866Z,1004.33
2017-06-15T14:30:50.883Z,1004.27
2017-06-15T14:40:50.899Z,1004.13
2017-06-15T14:50:50.886Z,1004.15
2017-06-15T15:00:50.904Z,1004.12
2017-06-15T15:10:50.880Z,1004.34
2017-06-15T15:20:50.914Z,1004.78
2017-06-15T15:30:50.901Z,1004.68
2017-06-15T15:40:50.883Z,1004.83
2017-06-15T15:50:50.886Z,1004.85
2017-06-15T16:00:50.887Z,1004.68
2017-06-15T16:10:50.900Z,1004.75
2017-06-15T16:20:50.896Z,1005.12
2017-06-15T16:30:50.914Z,1005.28
2017-06-15T16:40:50.899Z,1005.02
2017-06-15T16:50:50.892Z,1004.88
2017-06-15T17:00:50.902Z,1004.92
2017-06-15T17:10:50.900Z,1004.99
2017-06-15T17:20:50.893Z,1004.79
2017-06-15T17:30:50.886Z,1004.67
2017-06-15T17:40:50.905Z,1004.69
2017-06-15T17:50:50.898Z,1004.65
2017-06-15T18:00:50.921Z,1004.58
2017-06-15T18:10:50.900Z,1004.61
2017-06-15T18:20:50.908Z,1004.66
2017-06-15T18:30:50.905Z,1004.68
2017-06-15T18:40:50.913Z,1004.74
2017-06-15T18:50:50.905Z,1004.89
2017-06-15T19:00:50.910Z,1005.07
2017-06-15T19:10:50.921Z,1005.26
2017-06-15T19:20:50.926Z,1005.41
2017-06-15T19:30:50.910Z,1005.62
2017-06-15T19:40:50.931Z,1005.77
2017-06-15T19:50:50.930Z,1005.92
2017-06-15T20:00:50.906Z,1006.04
2017-06-15T20:10:50.917Z,1006.18
2017-06-15T20:20:50.925Z,1006.2
2017-06-15T20:30:50.916Z,1006.34
2017-06-15T20:40:50.918Z,1006.44
2017-06-15T20:50:50.919Z,1006.5
2017-06-15T21:00:50.916Z,1006.58
2017-06-15T21:10:50.919Z,1006.55
2017-06-15T21:20:50.917Z,1006.58
2017-06-15T21:30:50.919Z,1006.61
2017-06-15T21:40:50.919Z,1006.71
2017-06-15T21:50:50.921Z,1006.65
2017-06-15T22:00:50.914Z,1006.61
2017-06-15T22:10:50.914Z,1006.59
2017-06-15T22:20:50.919Z,1006.63
2017-06-15T22:30:50.920Z,1006.72
2017-06-15T22:40:50.909Z,1006.75
2017-06-15T22:50:50.916Z,1006.74
2017-06-15T23:00:50.914Z,1006.79
2017-06-15T23:10:50.919Z,1006.9
2017-06-15T23:20:50.913Z,1006.9
2017-06-15T23:30:50.911Z,1006.95
2017-06-15T23:40:50.916Z,1006.96
2017-06-15T23:50:50.906Z,1006.94
